Weather at Hazrat Shahjalal International Airport

Public forecast

Using degrees Celsius for public forecast. Weather courtesy of forecast.io.

Current aviation weather report (METAR) for Hazrat Shahjalal International Airport

Retrieved 2021/01/23 01:30 UTC (0 seconds ago):

VGHS 230130Z 29003KT 0050 FG OVC001 14/14 Q1014 NOSIG

Closest aviation forecast (TAF) to Hazrat Shahjalal International Airport

Retrieved 2021-01-23 00:00 UTC (1 hour ago):

TAF VGHS 222300Z 2300/2406 00000KT 1000 MIFG FEW008 TEMPO 2300/2304 00000KT 0500 FG BKN003 BECMG 2305/2307 36006KT 1500 BR FEW010 BECMG 2310/2312 3000 HZ NSC BECMG 2318/2320 VRB03KT 1800 BR FEW012 BECMG 2321/2323 00000KT 1200 BR FEW010 TEMPO 2322/2403 00000KT 0800 FG BKN004